Time;durP1;ratioP1;P1;durP2;ratioP2;P2;SDS_P1;SDS_P2;PMS_P1;PMS_P2;Temp;Humidity;BMP_temperature;BMP_pressure;BME280_temperature;BME280_humidity;BME280_pressure;Samples;Min_cycle;Max_cycle;Signal;HPM_P1;HPM_P2
2022/12/02 00:01:12;;;;;;;28.15;12.48;;;;;;;1.19;100.00;99306.59;4469648;32;20135;-72
2022/12/02 00:03:40;;;;;;;35.75;13.43;;;;;;;1.19;100.00;99304.84;4469773;32;20119;-72
2022/12/02 00:06:18;;;;;;;37.50;14.50;;;;;;;1.12;100.00;99308.59;4469456;32;20085;-72
2022/12/02 00:08:45;;;;;;;30.48;12.10;;;;;;;1.12;100.00;99306.03;4476675;32;20485;-72
2022/12/02 00:11:30;;;;;;;29.73;13.23;;;;;;;1.07;100.00;99302.78;4485210;31;20142;-72
2022/12/02 00:14:07;;;;;;;31.02;13.40;;;;;;;1.07;100.00;99313.09;4485328;31;20208;-72
2022/12/02 00:16:34;;;;;;;30.92;13.40;;;;;;;0.96;100.00;99300.66;4483995;32;20143;-72
2022/12/02 00:19:02;;;;;;;32.08;12.18;;;;;;;1.03;100.00;99309.81;4485419;32;20150;-72
2022/12/02 00:21:29;;;;;;;34.13;12.25;;;;;;;1.06;100.00;99312.28;4473824;31;20100;-72
2022/12/02 00:23:56;;;;;;;29.85;12.75;;;;;;;1.00;100.00;99312.53;4469330;32;20148;-72
2022/12/02 00:26:24;;;;;;;30.37;12.30;;;;;;;0.94;100.00;99306.75;4469489;32;20115;-72
2022/12/02 00:28:51;;;;;;;31.62;12.43;;;;;;;0.95;100.00;99308.44;4469417;32;20164;-72
2022/12/02 00:31:20;;;;;;;28.10;12.02;;;;;;;1.00;100.00;99306.50;4469240;32;20120;-72
2022/12/02 00:33:47;;;;;;;31.20;12.98;;;;;;;0.94;100.00;99315.37;4469434;32;20093;-72
2022/12/02 00:36:14;;;;;;;30.90;12.10;;;;;;;0.90;100.00;99310.38;4469346;32;20108;-72
2022/12/02 00:38:42;;;;;;;29.92;12.35;;;;;;;0.82;100.00;99308.97;4469396;32;20498;-72
2022/12/02 00:41:09;;;;;;;27.80;12.35;;;;;;;0.75;100.00;99302.38;4469410;32;20119;-72
2022/12/02 00:46:31;;;;;;;30.92;13.18;;;;;;;0.78;100.00;99302.25;4469342;32;20140;-72
2022/12/02 00:48:58;;;;;;;34.03;13.00;;;;;;;0.73;100.00;99305.91;4469377;32;20562;-72
2022/12/02 00:51:26;;;;;;;30.30;12.90;;;;;;;0.71;100.00;99303.38;4469229;32;20206;-72
2022/12/02 00:53:53;;;;;;;29.17;12.52;;;;;;;0.68;100.00;99311.25;4469079;32;20097;-72
2022/12/02 00:56:20;;;;;;;33.38;12.90;;;;;;;0.69;100.00;99303.44;4469292;32;20147;-72
2022/12/02 00:58:48;;;;;;;29.65;13.10;;;;;;;0.63;100.00;99302.84;4469040;32;20449;-72
2022/12/02 01:01:16;;;;;;;30.73;13.07;;;;;;;0.61;100.00;99299.50;4469159;32;20630;-72
2022/12/02 01:03:43;;;;;;;27.85;11.77;;;;;;;0.64;100.00;99301.97;4469024;32;20096;-72
2022/12/02 01:06:21;;;;;;;30.05;12.13;;;;;;;0.58;100.00;99299.63;4469203;32;20118;-72
2022/12/02 01:08:48;;;;;;;29.60;11.95;;;;;;;0.59;100.00;99288.41;4476221;32;20119;-72
2022/12/02 01:11:16;;;;;;;35.97;12.75;;;;;;;0.68;100.00;99300.91;4484853;31;20164;-72
2022/12/02 01:13:43;;;;;;;24.37;11.70;;;;;;;0.57;100.00;99285.06;4484743;31;20614;-72
2022/12/02 01:16:10;;;;;;;32.90;11.35;;;;;;;0.59;100.00;99286.69;4484687;31;20100;-72
2022/12/02 01:18:37;;;;;;;25.90;11.60;;;;;;;0.56;100.00;99285.94;4484878;31;20506;-72
2022/12/02 01:21:04;;;;;;;30.65;12.57;;;;;;;0.56;100.00;99276.50;4476091;31;20167;-72
2022/12/02 01:23:31;;;;;;;27.25;11.98;;;;;;;0.51;100.00;99280.97;4469112;32;20156;-72
2022/12/02 01:25:59;;;;;;;36.58;12.93;;;;;;;0.59;100.00;99280.66;4469146;32;20443;-72
2022/12/02 01:28:26;;;;;;;25.55;10.90;;;;;;;0.62;100.00;99281.41;4468831;32;20097;-72
2022/12/02 01:30:53;;;;;;;28.00;12.23;;;;;;;0.72;100.00;99271.53;4468941;32;20134;-72
2022/12/02 01:33:20;;;;;;;33.08;12.77;;;;;;;0.80;100.00;99281.53;4468908;32;20108;-72
2022/12/02 01:35:47;;;;;;;24.67;11.32;;;;;;;0.71;100.00;99272.44;4468841;32;20136;-72
2022/12/02 01:38:14;;;;;;;27.33;11.38;;;;;;;0.67;100.00;99268.31;4468674;32;20089;-72
2022/12/02 01:40:41;;;;;;;25.58;11.50;;;;;;;0.77;100.00;99273.94;4468799;32;20115;-72
2022/12/02 01:43:09;;;;;;;22.85;10.63;;;;;;;0.80;100.00;99268.66;4468753;32;20151;-72
2022/12/02 01:45:36;;;;;;;26.15;11.15;;;;;;;0.75;100.00;99266.25;4468674;32;20085;-72
2022/12/02 01:48:03;;;;;;;31.92;10.63;;;;;;;0.70;100.00;99274.19;4468779;32;20123;-72
2022/12/02 01:50:31;;;;;;;27.37;10.40;;;;;;;0.75;100.00;99270.59;4468724;32;20118;-72
2022/12/02 01:52:58;;;;;;;23.50;10.43;;;;;;;0.71;100.00;99269.84;4468416;32;20608;-72
2022/12/02 01:55:27;;;;;;;36.47;11.82;;;;;;;0.58;100.00;99261.78;4468499;32;20221;-72
2022/12/02 01:57:56;;;;;;;28.17;11.02;;;;;;;0.67;100.00;99258.00;4468564;32;20101;-72
2022/12/02 02:00:23;;;;;;;30.02;10.73;;;;;;;0.70;100.00;99265.62;4469432;32;20188;-72
2022/12/02 02:02:50;;;;;;;30.60;10.95;;;;;;;0.74;100.00;99269.72;4470337;32;20092;-72
2022/12/02 02:05:27;;;;;;;27.02;10.85;;;;;;;0.67;100.00;99265.75;4470251;32;20097;-72
2022/12/02 02:08:03;;;;;;;26.58;11.68;;;;;;;0.64;100.00;99268.44;4470720;32;20532;-72
2022/12/02 02:10:31;;;;;;;30.48;10.45;;;;;;;0.79;100.00;99269.53;4486026;31;20084;-72
2022/12/02 02:12:58;;;;;;;25.73;10.35;;;;;;;0.81;100.00;99273.75;4484760;32;20108;-72
2022/12/02 02:15:25;;;;;;;23.27;10.70;;;;;;;0.71;100.00;99272.44;4486329;31;20118;-72
2022/12/02 02:17:56;;;;;;;27.58;11.48;;;;;;;0.78;100.00;99276.44;4486195;31;20124;-72
2022/12/02 02:20:31;;;;;;;22.20;10.60;;;;;;;0.92;100.00;99277.63;4480072;32;20104;-72
2022/12/02 02:23:05;;;;;;;20.67;9.27;;;;;;;0.84;100.00;99273.62;4470134;32;20119;-72
2022/12/02 02:25:53;;;;;;;25.35;10.70;;;;;;;0.81;100.00;99281.47;4470600;32;20150;-72
2022/12/02 02:28:25;;;;;;;25.05;10.57;;;;;;;0.91;100.00;99276.78;4470093;32;20164;-72
2022/12/02 02:30:55;;;;;;;27.25;10.45;;;;;;;0.87;100.00;99281.22;4470365;32;20541;-72
2022/12/02 02:33:24;;;;;;;22.13;9.20;;;;;;;0.85;100.00;99283.03;4470421;32;20434;-72
2022/12/02 02:35:51;;;;;;;24.58;11.23;;;;;;;0.91;100.00;99276.78;4470295;32;20462;-72
2022/12/02 02:38:21;;;;;;;24.17;9.80;;;;;;;0.91;100.00;99287.13;4470420;32;20089;-72
2022/12/02 02:40:48;;;;;;;26.55;10.40;;;;;;;0.93;100.00;99274.16;4469252;32;20123;-72
2022/12/02 02:43:16;;;;;;;25.37;10.00;;;;;;;0.84;100.00;99275.38;4469061;32;20553;-72
2022/12/02 02:45:44;;;;;;;22.15;9.45;;;;;;;0.82;100.00;99269.44;4468851;32;20487;-72
2022/12/02 02:48:12;;;;;;;26.55;9.98;;;;;;;0.76;100.00;99275.69;4469083;32;20124;-72
2022/12/02 02:50:41;;;;;;;25.65;9.63;;;;;;;0.77;100.00;99264.44;4468797;32;20100;-72
2022/12/02 02:53:09;;;;;;;25.35;9.35;;;;;;;0.74;100.00;99261.16;4470201;32;20483;-72
2022/12/02 02:55:36;;;;;;;22.55;9.93;;;;;;;0.74;100.00;99261.16;4468855;32;20100;-72
2022/12/02 02:58:17;;;;;;;20.05;7.95;;;;;;;0.76;100.00;99257.62;4470449;32;20156;-72
2022/12/02 03:00:59;;;;;;;26.60;9.55;;;;;;;0.69;100.00;99251.03;4470352;32;20100;-72
2022/12/02 03:03:37;;;;;;;23.48;8.32;;;;;;;0.72;100.00;99261.22;4469148;32;20183;-72
2022/12/02 03:06:06;;;;;;;25.90;9.57;;;;;;;0.61;100.00;99258.25;4469070;32;20774;-72
2022/12/02 03:08:35;;;;;;;22.77;9.80;;;;;;;0.57;100.00;99256.69;4475193;32;20085;-72
2022/12/02 03:11:03;;;;;;;24.80;9.65;;;;;;;0.37;100.00;99253.19;4484469;32;20378;-72
2022/12/02 03:13:32;;;;;;;25.45;9.63;;;;;;;0.48;100.00;99257.91;4485744;31;20093;-72
2022/12/02 03:16:00;;;;;;;20.23;8.68;;;;;;;0.57;100.00;99265.25;4485772;31;20092;-72
2022/12/02 03:18:28;;;;;;;21.75;8.43;;;;;;;0.51;100.00;99263.75;4484440;32;20101;-72
2022/12/02 03:20:55;;;;;;;20.40;9.32;;;;;;;0.44;100.00;99259.78;4476909;32;20215;-72
2022/12/02 03:23:22;;;;;;;21.58;8.80;;;;;;;0.44;100.00;99257.19;4468880;32;20088;-72
2022/12/02 03:25:49;;;;;;;18.95;8.40;;;;;;;0.32;100.00;99260.25;4470187;32;20152;-72
2022/12/02 03:28:18;;;;;;;20.45;8.05;;;;;;;0.32;100.00;99263.66;4468695;32;20178;-72
2022/12/02 03:30:45;;;;;;;25.80;10.07;;;;;;;0.36;100.00;99254.06;4469765;32;20096;-72
2022/12/02 03:33:12;;;;;;;24.77;10.25;;;;;;;0.39;100.00;99256.53;4470057;32;20119;-72
2022/12/02 03:35:39;;;;;;;18.65;7.62;;;;;;;0.33;100.00;99254.19;4469729;32;20159;-72
2022/12/02 03:38:06;;;;;;;25.95;10.98;;;;;;;0.30;100.00;99259.47;4469884;32;20092;-72
2022/12/02 03:40:33;;;;;;;23.40;8.98;;;;;;;0.36;100.00;99254.06;4469862;32;20173;-72
2022/12/02 03:43:01;;;;;;;20.02;8.27;;;;;;;0.26;100.00;99255.31;4468621;32;20116;-72
2022/12/02 03:45:28;;;;;;;24.95;9.07;;;;;;;0.27;100.00;99259.59;4469849;32;20426;-72
2022/12/02 03:47:55;;;;;;;24.65;9.48;;;;;;;0.33;100.00;99261.91;4469908;32;20097;-72
2022/12/02 03:50:23;;;;;;;22.62;9.38;;;;;;;0.40;100.00;99257.38;4469606;32;20097;-72
2022/12/02 03:52:50;;;;;;;22.27;9.50;;;;;;;0.41;100.00;99256.47;4469935;32;20197;-72
2022/12/02 03:55:17;;;;;;;22.50;9.05;;;;;;;0.34;100.00;99251.56;4469544;32;20258;-72
2022/12/02 03:57:44;;;;;;;23.12;10.00;;;;;;;0.39;100.00;99253.13;4469611;32;20152;-72
2022/12/02 04:00:12;;;;;;;23.25;10.60;;;;;;;0.31;100.00;99253.41;4470010;32;20161;-72
2022/12/02 04:02:42;;;;;;;20.85;10.32;;;;;;;0.28;100.00;99256.94;4469595;32;20155;-72
2022/12/02 04:05:09;;;;;;;24.30;10.45;;;;;;;0.31;100.00;99263.72;4469508;32;20136;-72
2022/12/02 04:07:36;;;;;;;26.30;10.05;;;;;;;0.32;100.00;99265.41;4469629;32;20168;-72
2022/12/02 04:10:05;;;;;;;23.73;10.18;;;;;;;0.22;100.00;99259.78;4485286;32;20120;-72
2022/12/02 04:12:32;;;;;;;18.95;8.18;;;;;;;0.28;100.00;99267.25;4485226;31;20148;-72
2022/12/02 04:14:59;;;;;;;20.88;9.40;;;;;;;0.21;100.00;99267.56;4485178;31;20136;-72
2022/12/02 04:17:26;;;;;;;23.92;9.75;;;;;;;0.24;100.00;99262.28;4485568;32;20496;-72
2022/12/02 04:19:54;;;;;;;26.02;10.10;;;;;;;0.33;100.00;99261.91;4484073;32;20096;-72
2022/12/02 04:22:21;;;;;;;28.10;10.98;;;;;;;0.26;100.00;99263.06;4469391;32;20084;-72
2022/12/02 04:24:48;;;;;;;21.90;9.50;;;;;;;0.30;100.00;99257.75;4469580;32;20084;-72
2022/12/02 04:27:16;;;;;;;30.80;9.20;;;;;;;0.31;100.00;99258.56;4469565;32;20104;-72
2022/12/02 04:29:43;;;;;;;19.98;8.77;;;;;;;0.27;100.00;99262.16;4469566;32;20577;-72
2022/12/02 04:32:10;;;;;;;23.73;9.73;;;;;;;0.24;100.00;99257.13;4469126;32;20148;-72
2022/12/02 04:34:37;;;;;;;21.80;10.07;;;;;;;0.27;100.00;99259.59;4469385;32;20114;-72
2022/12/02 04:37:04;;;;;;;26.83;9.35;;;;;;;0.33;100.00;99269.66;4469406;32;20548;-72
2022/12/02 04:39:32;;;;;;;26.33;11.85;;;;;;;0.38;100.00;99261.75;4469490;32;20097;-72
2022/12/02 04:41:59;;;;;;;26.80;11.45;;;;;;;0.25;100.00;99262.22;4469321;32;20093;-72
2022/12/02 04:44:26;;;;;;;25.67;10.38;;;;;;;0.15;100.00;99261.75;4469471;32;20118;-72
2022/12/02 04:46:53;;;;;;;23.05;10.27;;;;;;;0.25;100.00;99269.13;4469197;32;20089;-72
2022/12/02 04:49:20;;;;;;;24.37;9.75;;;;;;;0.10;100.00;99262.81;4469420;32;20351;-72
2022/12/02 04:51:47;;;;;;;23.87;10.73;;;;;;;-0.05;100.00;99262.50;4469152;32;20159;-72
2022/12/02 04:54:15;;;;;;;28.87;10.82;;;;;;;0.15;100.00;99260.91;4469134;32;20096;-72
2022/12/02 04:56:42;;;;;;;28.02;11.10;;;;;;;0.16;100.00;99260.84;4469090;32;20119;-72
2022/12/02 04:59:09;;;;;;;26.65;10.30;;;;;;;0.16;100.00;99260.84;4469030;32;20454;-72
2022/12/02 05:01:36;;;;;;;22.35;10.23;;;;;;;0.08;100.00;99259.47;4468863;32;20168;-72
2022/12/02 05:04:03;;;;;;;27.83;10.25;;;;;;;0.10;100.00;99255.94;4469127;32;20428;-72
2022/12/02 05:06:30;;;;;;;27.35;11.32;;;;;;;0.12;100.00;99259.31;4469229;32;20678;-72
2022/12/02 05:08:57;;;;;;;23.75;9.38;;;;;;;0.01;100.00;99260.59;4477346;32;20181;-72
2022/12/02 05:11:24;;;;;;;26.60;11.05;;;;;;;0.07;100.00;99258.62;4484853;32;20521;-72
2022/12/02 05:13:51;;;;;;;21.95;9.15;;;;;;;-0.04;100.00;99263.34;4484893;31;20108;-72
2022/12/02 05:16:19;;;;;;;25.55;10.15;;;;;;;0.12;100.00;99267.03;4484188;32;20105;-72
2022/12/02 05:18:46;;;;;;;25.23;9.50;;;;;;;0.07;100.00;99258.62;4484243;32;20505;-72
2022/12/02 05:21:13;;;;;;;25.10;10.27;;;;;;;0.12;100.00;99264.44;4474915;31;20147;-72
2022/12/02 05:23:40;;;;;;;25.45;11.27;;;;;;;0.16;100.00;99263.41;4468892;32;20093;-72
2022/12/02 05:26:07;;;;;;;26.52;10.55;;;;;;;0.17;100.00;99259.13;4468792;32;20164;-72
2022/12/02 05:28:34;;;;;;;23.60;10.00;;;;;;;0.16;100.00;99270.31;4483424;32;20105;-71
2022/12/02 05:31:01;;;;;;;27.58;10.73;;;;;;;0.14;100.00;99265.22;4483948;31;20123;-72
2022/12/02 05:33:29;;;;;;;24.83;10.82;;;;;;;0.06;100.00;99267.25;4483782;32;20450;-72
2022/12/02 05:35:56;;;;;;;31.92;11.48;;;;;;;0.13;100.00;99260.97;4484442;31;20156;-72
2022/12/02 05:38:23;;;;;;;27.55;10.25;;;;;;;0.21;100.00;99264.97;4484090;31;20444;-72
2022/12/02 05:40:55;;;;;;;25.77;9.55;;;;;;;0.19;100.00;99269.37;4484457;31;20114;-71
2022/12/02 05:43:24;;;;;;;28.60;11.63;;;;;;;0.20;100.00;99273.59;4484471;31;20111;-71
2022/12/02 05:45:53;;;;;;;30.67;11.20;;;;;;;0.17;100.00;99270.25;4484491;31;20096;-72
2022/12/02 05:48:20;;;;;;;31.62;11.00;;;;;;;0.32;100.00;99262.84;4482677;32;20528;-72
2022/12/02 05:50:52;;;;;;;27.15;11.43;;;;;;;0.27;100.00;99262.16;4482386;32;20100;-71
2022/12/02 05:53:24;;;;;;;28.80;11.05;;;;;;;0.25;100.00;99266.56;4481114;32;20148;-72
2022/12/02 05:55:53;;;;;;;27.73;10.68;;;;;;;0.15;100.00;99273.78;4482753;31;20092;-72
2022/12/02 05:58:21;;;;;;;21.23;10.10;;;;;;;0.29;100.00;99273.28;4482217;31;20118;-72
2022/12/02 06:00:55;;;;;;;27.92;10.73;;;;;;;0.28;100.00;99272.41;4480728;31;20096;-72
2022/12/02 06:03:23;;;;;;;23.35;11.02;;;;;;;0.37;100.00;99270.37;4465742;32;20171;-72
2022/12/02 06:05:52;;;;;;;29.17;11.60;;;;;;;0.44;100.00;99277.81;4470163;32;20533;-71
2022/12/02 06:08:21;;;;;;;29.75;11.27;;;;;;;0.39;100.00;99273.75;4470665;32;20177;-71
2022/12/02 06:11:00;;;;;;;27.48;10.60;;;;;;;0.37;100.00;99280.69;4481622;32;20092;-71
2022/12/02 06:13:30;;;;;;;24.92;10.43;;;;;;;0.26;100.00;99276.78;4481709;31;20569;-71
2022/12/02 06:15:59;;;;;;;22.42;10.43;;;;;;;0.27;100.00;99281.06;4481692;31;20172;-72
2022/12/02 06:18:28;;;;;;;22.98;9.73;;;;;;;0.19;100.00;99277.94;4479947;31;20105;-71
2022/12/02 06:20:58;;;;;;;25.40;10.48;;;;;;;0.23;100.00;99289.81;4477954;32;20111;-72
2022/12/02 06:23:29;;;;;;;20.20;9.50;;;;;;;0.15;100.00;99287.53;4475154;31;20640;-72
2022/12/02 06:25:57;;;;;;;25.30;10.25;;;;;;;0.29;100.00;99286.16;4473334;32;20096;-72
2022/12/02 06:28:28;;;;;;;28.60;11.00;;;;;;;0.32;100.00;99288.62;4477102;31;20118;-72
2022/12/02 06:31:00;;;;;;;25.02;11.20;;;;;;;0.26;100.00;99288.81;4476034;32;20526;-72
2022/12/02 06:33:31;;;;;;;24.75;10.82;;;;;;;0.31;100.00;99294.66;4481029;32;20529;-72
2022/12/02 06:36:01;;;;;;;22.15;9.45;;;;;;;0.37;100.00;99297.00;4477573;32;20100;-72
2022/12/02 06:38:30;;;;;;;30.73;10.52;;;;;;;0.43;100.00;99296.75;4481322;31;20105;-71
2022/12/02 06:41:00;;;;;;;33.78;10.80;;;;;;;0.52;100.00;99298.97;4480761;32;20218;-72
2022/12/02 06:43:30;;;;;;;24.05;10.48;;;;;;;0.50;100.00;99295.62;4473977;32;20088;-72
2022/12/02 06:45:58;;;;;;;31.67;10.57;;;;;;;0.50;100.00;99295.62;4469363;32;20120;-72
2022/12/02 06:48:31;;;;;;;25.17;10.30;;;;;;;0.53;100.00;99302.41;4469977;32;20488;-72
2022/12/02 06:51:18;;;;;;;27.87;10.73;;;;;;;0.48;100.00;99299.97;4484350;32;20504;-72
2022/12/02 06:53:46;;;;;;;28.60;10.50;;;;;;;0.64;100.00;99301.97;4483110;32;20153;-72
2022/12/02 06:56:27;;;;;;;24.90;8.80;;;;;;;0.44;100.00;99306.16;4479922;32;20389;-73
2022/12/02 06:59:00;;;;;;;32.55;11.38;;;;;;;0.50;100.00;99305.06;4482158;32;20621;-72
2022/12/02 07:01:37;;;;;;;23.03;8.80;;;;;;;0.60;100.00;99306.38;4484986;31;20571;-71
2022/12/02 07:04:07;;;;;;;26.87;10.68;;;;;;;0.67;100.00;99312.16;4484463;31;20131;-71
2022/12/02 07:06:40;;;;;;;32.33;11.15;;;;;;;0.70;100.00;99314.63;4480795;31;20100;-71
2022/12/02 07:09:31;;;;;;;35.25;12.25;;;;;;;0.84;100.00;99304.56;4474936;31;20104;-69
2022/12/02 07:11:59;;;;;;;25.58;10.77;;;;;;;0.78;100.00;99307.41;4476701;32;20160;-72
2022/12/02 07:14:27;;;;;;;31.50;11.57;;;;;;;0.74;100.00;99307.59;4481224;31;20100;-73
2022/12/02 07:16:56;;;;;;;25.27;10.73;;;;;;;0.79;100.00;99314.25;4481638;31;20092;-71
2022/12/02 07:19:33;;;;;;;27.50;9.05;;;;;;;0.85;100.00;99314.00;4477485;32;20120;-72
2022/12/02 07:22:01;;;;;;;21.50;9.75;;;;;;;0.87;100.00;99316.50;4478125;32;20175;-73
2022/12/02 07:24:28;;;;;;;20.48;9.85;;;;;;;0.81;100.00;99317.59;4481307;32;20144;-74
2022/12/02 07:26:55;;;;;;;23.95;10.50;;;;;;;0.98;100.00;99321.22;4482101;32;20084;-74
2022/12/02 07:29:30;;;;;;;24.83;9.80;;;;;;;1.09;100.00;99315.63;4483339;32;20158;-73
2022/12/02 07:31:57;;;;;;;29.77;11.10;;;;;;;1.17;100.00;99326.47;4478947;31;20116;-71
2022/12/02 07:34:24;;;;;;;24.95;11.48;;;;;;;1.14;100.00;99319.69;4480948;31;22294;-72
2022/12/02 07:36:57;;;;;;;24.80;10.27;;;;;;;1.20;100.00;99319.44;4483475;32;20097;-72
2022/12/02 07:39:24;;;;;;;29.77;9.82;;;;;;;1.10;100.00;99323.28;4484139;31;20092;-74
2022/12/02 07:41:51;;;;;;;27.00;10.63;;;;;;;1.04;100.00;99326.12;4481868;31;20886;-73
2022/12/02 07:44:18;;;;;;;33.95;11.82;;;;;;;0.91;100.00;99317.22;4483486;32;20122;-73
2022/12/02 07:46:45;;;;;;;23.25;10.43;;;;;;;1.01;100.00;99321.09;4483673;31;20491;-77
2022/12/02 07:49:12;;;;;;;26.00;11.38;;;;;;;0.93;100.00;99320.59;4484054;31;20099;-75
2022/12/02 07:51:39;;;;;;;28.87;11.35;;;;;;;1.08;100.00;99326.88;4475773;32;20142;-73
2022/12/02 07:54:06;;;;;;;25.50;10.88;;;;;;;1.08;100.00;99329.44;4481519;31;20110;-74
2022/12/02 07:56:33;;;;;;;25.10;11.05;;;;;;;1.18;100.00;99329.00;4481924;32;20118;-74
2022/12/02 07:59:01;;;;;;;34.17;11.48;;;;;;;1.09;100.00;99331.09;4476003;31;193009;-73
2022/12/02 08:01:38;;;;;;;24.75;9.93;;;;;;;1.01;100.00;99334.00;4484999;31;20108;-74
2022/12/02 08:04:06;;;;;;;30.52;10.35;;;;;;;1.02;100.00;99327.94;4482611;31;20489;-75
2022/12/02 08:06:33;;;;;;;24.17;11.32;;;;;;;1.14;100.00;99329.19;4481493;31;20093;-72
2022/12/02 08:09:06;;;;;;;25.92;11.45;;;;;;;0.96;100.00;99323.88;4481959;31;20115;-72
2022/12/02 08:11:33;;;;;;;25.67;10.50;;;;;;;1.10;100.00;99322.47;4478756;32;20093;-72
2022/12/02 08:14:00;;;;;;;26.27;11.05;;;;;;;1.16;100.00;99325.63;4476066;32;20172;-73
2022/12/02 08:16:28;;;;;;;26.70;11.63;;;;;;;1.23;100.00;99329.63;4483200;31;20120;-72
2022/12/02 08:18:55;;;;;;;24.17;10.68;;;;;;;1.34;100.00;99328.34;4484183;32;20521;-72
2022/12/02 08:21:22;;;;;;;22.85;9.63;;;;;;;1.36;100.00;99329.09;4481108;31;20149;-73
2022/12/02 08:23:49;;;;;;;23.52;10.77;;;;;;;1.34;100.00;99329.16;4478705;32;20111;-76
2022/12/02 08:26:17;;;;;;;23.02;11.05;;;;;;;1.29;100.00;99332.84;4477571;32;20127;-72
2022/12/02 08:28:44;;;;;;;31.12;11.30;;;;;;;1.22;100.00;99333.09;4479089;32;20121;-74
2022/12/02 08:31:17;;;;;;;27.42;11.00;;;;;;;1.22;100.00;99337.44;4482389;32;20119;-72
2022/12/02 08:33:44;;;;;;;26.48;11.35;;;;;;;1.25;100.00;99324.41;4482746;31;20100;-72
2022/12/02 08:36:11;;;;;;;20.73;8.05;;;;;;;1.14;100.00;99331.75;4481756;32;20118;-72
2022/12/02 08:38:38;;;;;;;26.17;10.50;;;;;;;1.26;100.00;99326.09;4481364;31;20164;-71
2022/12/02 08:41:05;;;;;;;22.90;9.73;;;;;;;1.21;100.00;99331.44;4472459;32;20096;-72
2022/12/02 08:43:41;;;;;;;26.17;11.50;;;;;;;1.13;100.00;99330.06;4475118;32;20163;-71
2022/12/02 08:46:08;;;;;;;22.30;9.65;;;;;;;0.93;100.00;99325.75;4480048;31;20108;-73
2022/12/02 08:48:36;;;;;;;30.52;11.00;;;;;;;1.02;100.00;99325.38;4482806;31;20465;-74
2022/12/02 08:51:04;;;;;;;29.73;11.80;;;;;;;1.10;100.00;99331.03;4484017;32;20100;-76
2022/12/02 08:53:31;;;;;;;27.40;11.20;;;;;;;1.10;100.00;99336.19;4482501;31;20101;-73
2022/12/02 08:55:58;;;;;;;27.13;12.07;;;;;;;0.94;100.00;99338.56;4483915;32;20104;-71
2022/12/02 08:58:25;;;;;;;29.27;10.75;;;;;;;1.02;100.00;99339.09;4482243;31;20712;-71
2022/12/02 09:00:52;;;;;;;28.27;11.30;;;;;;;1.20;100.00;99337.50;4483227;31;20088;-72
2022/12/02 09:03:19;;;;;;;28.75;11.88;;;;;;;1.36;100.00;99339.44;4484717;32;20088;-72
2022/12/02 09:05:46;;;;;;;33.78;11.98;;;;;;;1.43;100.00;99330.53;4483678;32;20156;-72
2022/12/02 09:08:13;;;;;;;33.65;12.75;;;;;;;1.49;100.00;99335.44;4480776;31;20552;-72
2022/12/02 09:10:40;;;;;;;28.20;11.85;;;;;;;1.50;100.00;99331.94;4477605;31;20139;-72
2022/12/02 09:13:08;;;;;;;29.80;12.55;;;;;;;1.53;100.00;99336.97;4471566;32;20159;-71
2022/12/02 09:15:35;;;;;;;30.33;13.48;;;;;;;1.61;100.00;99338.41;4481599;32;20106;-72
2022/12/02 09:18:02;;;;;;;33.25;13.43;;;;;;;1.58;100.00;99342.78;4482625;31;20096;-73
2022/12/02 09:20:30;;;;;;;27.75;11.05;;;;;;;1.72;100.00;99334.41;4482319;31;20172;-72
2022/12/02 09:22:57;;;;;;;36.10;13.27;;;;;;;1.76;100.00;99329.97;4483066;31;20140;-72
2022/12/02 09:25:24;;;;;;;31.52;12.10;;;;;;;1.70;100.00;99332.84;4481382;31;20214;-72
2022/12/02 09:27:52;;;;;;;26.85;11.77;;;;;;;1.73;100.00;99328.34;4482168;32;20248;-72
2022/12/02 09:30:19;;;;;;;30.33;10.35;;;;;;;1.63;100.00;99334.81;4481095;32;20144;-74
2022/12/02 09:32:46;;;;;;;29.23;12.52;;;;;;;1.56;100.00;99339.44;4481046;32;20096;-74
2022/12/02 09:35:14;;;;;;;38.50;13.02;;;;;;;1.70;100.00;99338.81;4474343;32;20136;-74
2022/12/02 09:37:41;;;;;;;32.80;11.82;;;;;;;1.66;100.00;99339.03;4476867;32;20225;-73
2022/12/02 09:40:08;;;;;;;32.03;12.37;;;;;;;1.70;100.00;99336.25;4477677;31;20105;-72
2022/12/02 09:42:36;;;;;;;30.30;13.23;;;;;;;1.71;100.00;99337.06;4477913;32;20116;-74
2022/12/02 09:45:03;;;;;;;27.83;12.63;;;;;;;1.68;100.00;99330.31;4476690;31;20104;-74
2022/12/02 09:47:30;;;;;;;30.90;12.57;;;;;;;1.42;100.00;99334.00;4476158;32;20139;-74
2022/12/02 09:49:58;;;;;;;29.70;11.65;;;;;;;1.42;100.00;99334.00;4477907;32;20128;-73
2022/12/02 09:52:26;;;;;;;28.62;13.18;;;;;;;1.54;100.00;99337.81;4484370;31;20151;-75
2022/12/02 09:54:55;;;;;;;29.27;12.50;;;;;;;1.30;100.00;99339.69;4479426;31;20143;-75
2022/12/02 09:57:30;;;;;;;29.27;12.20;;;;;;;1.39;100.00;99335.00;4477040;31;20148;-74
2022/12/02 10:00:09;;;;;;;30.30;11.90;;;;;;;1.45;100.00;99333.88;4481191;32;20104;-74
2022/12/02 10:02:39;;;;;;;34.60;13.35;;;;;;;1.46;100.00;99332.16;4476627;32;20854;-77
2022/12/02 10:05:13;;;;;;;32.55;13.18;;;;;;;1.42;100.00;99331.41;4475929;32;20104;-76
2022/12/02 10:07:43;;;;;;;34.47;12.90;;;;;;;1.44;100.00;99333.94;4472686;32;20504;-75
2022/12/02 10:10:17;;;;;;;30.45;13.20;;;;;;;1.49;100.00;99332.84;4480383;32;20135;-73
2022/12/02 10:12:45;;;;;;;34.92;13.38;;;;;;;1.57;100.00;99335.09;4474314;32;20143;-75
2022/12/02 10:15:14;;;;;;;35.65;13.55;;;;;;;1.58;100.00;99329.84;4482108;32;20118;-74
2022/12/02 10:17:42;;;;;;;34.55;12.95;;;;;;;1.64;100.00;99322.78;4480595;32;20096;-73
2022/12/02 10:20:28;;;;;;;29.00;12.25;;;;;;;1.73;100.00;99325.78;4474854;32;20233;-72
2022/12/02 10:23:10;;;;;;;31.40;13.50;;;;;;;1.75;100.00;99326.53;4482391;32;20107;-75
2022/12/02 10:25:39;;;;;;;35.50;13.52;;;;;;;1.74;100.00;99334.34;4485739;31;20105;-76
2022/12/02 10:28:20;;;;;;;29.55;12.20;;;;;;;1.80;100.00;99328.91;4485302;31;20113;-76
2022/12/02 10:31:03;;;;;;;39.45;13.50;;;;;;;1.88;100.00;99320.84;4484281;31;20865;-74
2022/12/02 10:33:33;;;;;;;32.63;12.85;;;;;;;1.90;100.00;99326.78;4481750;32;20080;-73
2022/12/02 10:36:01;;;;;;;28.98;13.15;;;;;;;1.97;100.00;99320.44;4476939;31;20481;-75
2022/12/02 10:38:35;;;;;;;30.75;13.30;;;;;;;1.94;100.00;99324.00;4484093;32;20111;-74
2022/12/02 10:41:19;;;;;;;32.05;12.48;;;;;;;1.93;100.00;99322.28;4485255;31;20167;-73
2022/12/02 10:43:52;;;;;;;33.08;13.70;;;;;;;1.86;100.00;99320.91;4484637;31;20148;-73
2022/12/02 10:46:20;;;;;;;29.15;13.60;;;;;;;1.87;100.00;99322.56;4481752;32;20119;-75
2022/12/02 10:48:48;;;;;;;29.75;13.82;;;;;;;1.88;100.00;99321.69;4481949;31;20567;-75
2022/12/02 10:51:17;;;;;;;31.17;13.85;;;;;;;2.00;100.00;99322.03;4483712;31;20175;-75
2022/12/02 10:53:51;;;;;;;26.77;12.18;;;;;;;1.90;100.00;99312.09;4484255;31;20146;-74
2022/12/02 10:56:22;;;;;;;33.22;14.35;;;;;;;1.95;100.00;99319.66;4468699;32;20183;-73
2022/12/02 10:58:50;;;;;;;29.63;12.82;;;;;;;1.98;100.00;99318.69;4469918;32;20119;-73
2022/12/02 11:01:21;;;;;;;31.17;12.68;;;;;;;2.08;100.00;99322.53;4480520;32;20473;-73
2022/12/02 11:03:48;;;;;;;29.83;11.98;;;;;;;2.12;100.00;99313.75;4485147;31;20100;-72
2022/12/02 11:06:18;;;;;;;31.62;14.07;;;;;;;2.11;100.00;99317.22;4486022;32;20151;-73
2022/12/02 11:08:47;;;;;;;34.13;14.45;;;;;;;2.11;100.00;99312.06;4477579;32;21051;-74
2022/12/02 11:11:17;;;;;;;32.03;13.13;;;;;;;2.22;100.00;99314.97;4479589;32;20111;-73
2022/12/02 11:14:04;;;;;;;28.27;12.13;;;;;;;2.24;100.00;99310.59;4483368;32;20464;-73
2022/12/02 11:16:33;;;;;;;29.58;12.25;;;;;;;2.29;100.00;99312.94;4476050;32;20454;-74
2022/12/02 11:19:31;;;;;;;31.87;14.05;;;;;;;2.39;100.00;99306.44;4481185;32;20108;-73
2022/12/02 11:21:59;;;;;;;30.70;11.43;;;;;;;2.52;100.00;99301.53;4484192;32;20191;-73
2022/12/02 11:24:26;;;;;;;32.78;14.18;;;;;;;2.54;100.00;99297.09;4484775;31;20238;-73
2022/12/02 11:27:01;;;;;;;31.23;13.27;;;;;;;2.58;100.00;99303.81;4485229;31;20217;-73
2022/12/02 11:29:28;;;;;;;35.92;14.13;;;;;;;2.72;100.00;99302.31;4478686;32;20159;-74
2022/12/02 11:32:02;;;;;;;30.80;13.82;;;;;;;2.65;100.00;99302.63;4482515;31;20108;-75